KSKF/SKF METAR and TAF weather

Enter ICAO airport designator
Station Type Date Time Source
KSKF METAR 2020/12/05 05:56 UTC NOAA

KSKF 050556Z AUTO 28004KT 6SM HZ CLR 04/01 A3022 RMK AO2 SLP235 T00380007 10122 20029 401480007 50003 $


Station Type Date Time Source
KSKF Decoded METAR 2020/12/05 05:56 UTC NOAA

Kelly Air Force Base, TX, United States (KSKF) 29-23N 098-35W
Dec 05, 2020 - 12:56 AM EST / 2020.12.05 0556 UTC
Wind: from the W (280 degrees) at 5 MPH (4 KT):0
Visibility: 6 mile(s):0
Sky conditions: clear
Weather: haze
Temperature: 38.8 F (3.8 C)
Dew Point: 33.3 F (0.7 C)
Relative Humidity: 80%
Pressure (altimeter): 30.22 in. Hg (1023 hPa)
Pressure tendency: 0.01 inches (0.3 hPa) higher than three hours ago
ob: KSKF 050556Z AUTO 28004KT 6SM HZ CLR 04/01 A3022 RMK AO2 SLP235 T00380007 10122 20029 401480007 50003
cycle: 6

Station Type Date Time Source
KSKF TAF 2020/12/05 02:09 UTC NOAA

TAF KSKF 050200Z 0502/0608 VRB04KT 9999 SKC QNH3015INS
BECMG 0511/0512 36007KT 9999 OVC070 QNH3018INS
BECMG 0603/0604 33004KT 9999 SKC QNH3014INS TX14/0521Z TN04/0511Z

Example: see airport list